createdAt,value
2023-05-12T06:21:33.003Z,1009.50
2023-05-12T06:31:32.881Z,1009.73
2023-05-12T06:41:33.129Z,1010.26
2023-05-12T06:51:32.867Z,1010.57
2023-05-12T07:01:32.979Z,1010.88
2023-05-12T07:11:32.750Z,1011.02
2023-05-12T07:21:32.950Z,1011.29
2023-05-12T07:31:33.209Z,1011.32
2023-05-12T07:41:34.449Z,1011.35
2023-05-12T07:51:33.071Z,1011.40
2023-05-12T08:01:33.039Z,1011.32
2023-05-12T08:11:33.205Z,1011.34
2023-05-12T08:21:33.279Z,1011.30
2023-05-12T08:31:33.476Z,1011.38
2023-05-12T08:41:33.388Z,1011.29
2023-05-12T08:51:33.271Z,1011.27
2023-05-12T09:01:35.345Z,1011.36
2023-05-12T09:11:33.289Z,1011.26
2023-05-12T09:21:33.450Z,1011.18
2023-05-12T09:31:33.549Z,1011.22
2023-05-12T09:41:33.604Z,1011.37
2023-05-12T09:51:33.480Z,1011.25
2023-05-12T10:01:33.668Z,1011.19
2023-05-12T10:11:33.404Z,1011.18
2023-05-12T10:21:33.477Z,1011.11
2023-05-12T10:31:33.649Z,1011.15
2023-05-12T10:41:33.368Z,1011.49
2023-05-12T10:51:33.477Z,1011.30
2023-05-12T11:01:34.838Z,1011.19
2023-05-12T11:11:34.231Z,1011.12
2023-05-12T11:21:33.323Z,1011.12
2023-05-12T11:31:33.536Z,1011.00
2023-05-12T11:41:33.476Z,1011.17
2023-05-12T11:51:33.320Z,1011.23
2023-05-12T12:01:33.397Z,1011.09
2023-05-12T12:11:33.460Z,1011.12
2023-05-12T12:21:33.529Z,1011.30
2023-05-12T12:31:33.717Z,1011.01
2023-05-12T12:41:33.455Z,1010.81
2023-05-12T12:51:45.179Z,1010.91
2023-05-12T13:01:33.782Z,1010.83
2023-05-12T13:11:33.754Z,1010.96
2023-05-12T13:21:33.517Z,1011.03
2023-05-12T13:31:33.880Z,1010.98
2023-05-12T13:41:33.538Z,1010.82
2023-05-12T13:51:33.746Z,1010.64
2023-05-12T14:01:33.726Z,1010.84
2023-05-12T14:11:33.632Z,1010.72
2023-05-12T14:21:33.614Z,1010.64
2023-05-12T14:31:33.612Z,1010.96
2023-05-12T14:41:33.639Z,1010.74
2023-05-12T14:51:33.711Z,1010.65
2023-05-12T15:01:33.784Z,1010.69
2023-05-12T15:11:33.741Z,1010.91
2023-05-12T15:21:34.771Z,1010.83
2023-05-12T15:31:34.233Z,1010.93
2023-05-12T15:41:33.957Z,1010.89
2023-05-12T15:51:33.796Z,1010.94
2023-05-12T16:01:34.128Z,1010.70
2023-05-12T16:11:34.037Z,1010.71
2023-05-12T16:21:33.901Z,1010.58
2023-05-12T16:31:33.923Z,1010.74
2023-05-12T16:41:33.783Z,1010.75
2023-05-12T16:51:33.905Z,1010.57
2023-05-12T17:01:33.999Z,1010.55
2023-05-12T17:11:34.937Z,1010.78
2023-05-12T17:21:34.085Z,1010.87
2023-05-12T17:31:34.025Z,1010.88
2023-05-12T17:41:34.015Z,1010.97
2023-05-12T17:51:33.878Z,1011.11
2023-05-12T18:01:34.143Z,1011.12
2023-05-12T18:11:34.017Z,1011.15
2023-05-12T18:21:34.086Z,1011.18
2023-05-12T18:31:34.073Z,1011.32
2023-05-12T18:41:34.148Z,1011.34
2023-05-12T18:51:33.982Z,1011.50
2023-05-12T19:01:34.083Z,1011.62
2023-05-12T19:11:33.899Z,1011.72
2023-05-12T19:21:34.070Z,1011.71
